sensor_id;sensor_type;location;lat;lon;timestamp;pressure;altitude;pressure_sealevel;temperature;humidity
72024;BME280;59889;50.700;5.440;2023-11-22T00:02:02;100997.98;;;21.45;36.40
72024;BME280;59889;50.700;5.440;2023-11-22T00:04:27;100995.55;;;21.23;36.36
72024;BME280;59889;50.700;5.440;2023-11-22T00:06:52;100997.42;;;21.38;36.50
72024;BME280;59889;50.700;5.440;2023-11-22T00:09:17;101004.55;;;21.15;36.46
72024;BME280;59889;50.700;5.440;2023-11-22T00:11:42;101001.93;;;21.35;36.53
72024;BME280;59889;50.700;5.440;2023-11-22T00:14:07;101005.25;;;21.47;36.37
72024;BME280;59889;50.700;5.440;2023-11-22T00:16:32;101006.03;;;21.44;36.42
72024;BME280;59889;50.700;5.440;2023-11-22T00:18:57;101009.85;;;21.26;36.36
72024;BME280;59889;50.700;5.440;2023-11-22T00:21:22;101012.64;;;21.59;36.27
72024;BME280;59889;50.700;5.440;2023-11-22T00:23:47;101014.27;;;21.32;36.25
72024;BME280;59889;50.700;5.440;2023-11-22T00:26:12;101012.61;;;21.06;36.29
72024;BME280;59889;50.700;5.440;2023-11-22T00:28:37;101010.30;;;21.21;36.38
72024;BME280;59889;50.700;5.440;2023-11-22T00:31:02;101010.24;;;21.16;36.47
72024;BME280;59889;50.700;5.440;2023-11-22T00:33:27;101005.26;;;21.15;36.49
72024;BME280;59889;50.700;5.440;2023-11-22T00:35:52;101001.95;;;21.03;36.32
72024;BME280;59889;50.700;5.440;2023-11-22T00:38:17;101004.01;;;21.48;36.36
72024;BME280;59889;50.700;5.440;2023-11-22T00:40:42;101000.08;;;21.24;36.38
72024;BME280;59889;50.700;5.440;2023-11-22T00:43:07;100999.54;;;21.40;36.47
72024;BME280;59889;50.700;5.440;2023-11-22T00:45:32;101000.21;;;21.36;36.25
72024;BME280;59889;50.700;5.440;2023-11-22T00:47:57;100999.29;;;21.39;36.49
72024;BME280;59889;50.700;5.440;2023-11-22T00:50:22;100999.05;;;21.18;36.46
72024;BME280;59889;50.700;5.440;2023-11-22T00:52:48;101003.39;;;21.15;36.22
72024;BME280;59889;50.700;5.440;2023-11-22T00:55:12;101002.14;;;21.11;36.52
72024;BME280;59889;50.700;5.440;2023-11-22T00:57:37;101008.90;;;21.26;36.36
72024;BME280;59889;50.700;5.440;2023-11-22T01:00:03;101009.12;;;21.38;36.49
72024;BME280;59889;50.700;5.440;2023-11-22T01:02:27;101012.79;;;21.13;36.49
72024;BME280;59889;50.700;5.440;2023-11-22T01:04:53;101017.72;;;21.26;36.35
72024;BME280;59889;50.700;5.440;2023-11-22T01:07:17;101021.61;;;21.29;36.28
72024;BME280;59889;50.700;5.440;2023-11-22T01:09:43;101027.76;;;21.19;36.43
72024;BME280;59889;50.700;5.440;2023-11-22T01:12:08;101029.02;;;21.00;36.36
72024;BME280;59889;50.700;5.440;2023-11-22T01:14:33;101034.27;;;21.41;36.47
72024;BME280;59889;50.700;5.440;2023-11-22T01:16:58;101038.71;;;21.20;36.39
72024;BME280;59889;50.700;5.440;2023-11-22T01:19:23;101040.28;;;21.16;36.48
72024;BME280;59889;50.700;5.440;2023-11-22T01:21:48;101037.61;;;21.48;36.38
72024;BME280;59889;50.700;5.440;2023-11-22T01:24:13;101041.27;;;20.89;36.52
72024;BME280;59889;50.700;5.440;2023-11-22T01:26:38;101048.43;;;21.28;36.62
72024;BME280;59889;50.700;5.440;2023-11-22T01:29:03;101048.70;;;21.15;36.49
72024;BME280;59889;50.700;5.440;2023-11-22T01:31:28;101047.78;;;21.13;36.50
72024;BME280;59889;50.700;5.440;2023-11-22T01:33:53;101051.11;;;21.14;36.47
72024;BME280;59889;50.700;5.440;2023-11-22T01:36:18;101057.50;;;21.35;36.50
72024;BME280;59889;50.700;5.440;2023-11-22T01:38:43;101059.14;;;21.32;36.58
72024;BME280;59889;50.700;5.440;2023-11-22T01:41:08;101062.50;;;21.35;36.53
72024;BME280;59889;50.700;5.440;2023-11-22T01:43:33;101067.74;;;21.24;36.68
72024;BME280;59889;50.700;5.440;2023-11-22T01:45:58;101073.00;;;21.38;36.24
72024;BME280;59889;50.700;5.440;2023-11-22T01:48:23;101077.71;;;21.14;36.49
72024;BME280;59889;50.700;5.440;2023-11-22T01:50:48;101080.26;;;21.15;36.47
72024;BME280;59889;50.700;5.440;2023-11-22T01:53:14;101081.60;;;20.99;36.34
72024;BME280;59889;50.700;5.440;2023-11-22T01:55:39;101080.48;;;21.30;36.59
72024;BME280;59889;50.700;5.440;2023-11-22T01:58:03;101090.98;;;20.93;36.47
72024;BME280;59889;50.700;5.440;2023-11-22T02:00:31;101091.59;;;21.28;36.64
72024;BME280;59889;50.700;5.440;2023-11-22T02:02:53;101094.06;;;21.21;36.74
72024;BME280;59889;50.700;5.440;2023-11-22T02:05:18;101095.81;;;21.08;36.60
72024;BME280;59889;50.700;5.440;2023-11-22T02:07:43;101099.00;;;21.17;36.47
72024;BME280;59889;50.700;5.440;2023-11-22T02:10:08;101104.90;;;21.20;36.73
72024;BME280;59889;50.700;5.440;2023-11-22T02:12:34;101109.55;;;21.31;36.58
72024;BME280;59889;50.700;5.440;2023-11-22T02:14:59;101105.46;;;21.17;36.49
72024;BME280;59889;50.700;5.440;2023-11-22T02:17:24;101111.25;;;21.06;36.61
72024;BME280;59889;50.700;5.440;2023-11-22T02:19:49;101115.91;;;21.27;36.63
72024;BME280;59889;50.700;5.440;2023-11-22T02:22:14;101119.90;;;21.00;36.70
72024;BME280;59889;50.700;5.440;2023-11-22T02:24:39;101123.92;;;21.07;36.61
72024;BME280;59889;50.700;5.440;2023-11-22T02:27:04;101128.49;;;21.32;36.58
72024;BME280;59889;50.700;5.440;2023-11-22T02:29:29;101134.89;;;21.24;36.69
72024;BME280;59889;50.700;5.440;2023-11-22T02:31:54;101135.22;;;21.45;36.45
72024;BME280;59889;50.700;5.440;2023-11-22T02:34:19;101135.04;;;21.04;36.65
72024;BME280;59889;50.700;5.440;2023-11-22T02:36:44;101130.64;;;21.24;36.68
72024;BME280;59889;50.700;5.440;2023-11-22T02:39:09;101124.97;;;20.99;36.69
72024;BME280;59889;50.700;5.440;2023-11-22T02:41:34;101115.91;;;21.24;36.70
72024;BME280;59889;50.700;5.440;2023-11-22T02:43:59;101113.40;;;21.26;36.67
72024;BME280;59889;50.700;5.440;2023-11-22T02:46:24;101119.86;;;21.19;36.75
72024;BME280;59889;50.700;5.440;2023-11-22T02:48:49;101118.18;;;20.97;36.72
72024;BME280;59889;50.700;5.440;2023-11-22T02:51:14;101120.36;;;21.21;36.71
72024;BME280;59889;50.700;5.440;2023-11-22T02:53:39;101120.93;;;21.31;36.61
72024;BME280;59889;50.700;5.440;2023-11-22T02:56:05;101127.12;;;21.26;36.64
72024;BME280;59889;50.700;5.440;2023-11-22T02:58:30;101132.94;;;21.00;36.71
72024;BME280;59889;50.700;5.440;2023-11-22T03:00:54;101133.02;;;21.23;36.71
72024;BME280;59889;50.700;5.440;2023-11-22T03:03:19;101136.54;;;20.81;36.64
72024;BME280;59889;50.700;5.440;2023-11-22T03:05:44;101140.02;;;21.20;36.46
72024;BME280;59889;50.700;5.440;2023-11-22T03:08:09;101138.56;;;21.26;36.67
72024;BME280;59889;50.700;5.440;2023-11-22T03:10:34;101136.43;;;21.14;36.55
72024;BME280;59889;50.700;5.440;2023-11-22T03:12:59;101143.73;;;21.13;36.85
72024;BME280;59889;50.700;5.440;2023-11-22T03:15:24;101146.23;;;20.89;36.84
72024;BME280;59889;50.700;5.440;2023-11-22T03:17:50;101148.84;;;21.21;36.72
72024;BME280;59889;50.700;5.440;2023-11-22T03:20:15;101148.24;;;20.91;36.82
72024;BME280;59889;50.700;5.440;2023-11-22T03:22:40;101150.12;;;21.18;36.76
72024;BME280;59889;50.700;5.440;2023-11-22T03:25:05;101149.26;;;20.90;36.80
72024;BME280;59889;50.700;5.440;2023-11-22T03:27:30;101151.70;;;21.05;36.63
72024;BME280;59889;50.700;5.440;2023-11-22T03:29:55;101149.49;;;21.11;36.57
72024;BME280;59889;50.700;5.440;2023-11-22T03:32:20;101146.27;;;20.98;36.71
72024;BME280;59889;50.700;5.440;2023-11-22T03:34:45;101143.68;;;21.19;36.75
72024;BME280;59889;50.700;5.440;2023-11-22T03:37:10;101147.61;;;21.24;36.67
72024;BME280;59889;50.700;5.440;2023-11-22T03:39:35;101149.12;;;21.28;36.64
72024;BME280;59889;50.700;5.440;2023-11-22T03:42:00;101150.42;;;21.33;36.57
72024;BME280;59889;50.700;5.440;2023-11-22T03:44:25;101144.75;;;20.94;36.75
72024;BME280;59889;50.700;5.440;2023-11-22T03:46:51;101141.12;;;21.17;36.77
72024;BME280;59889;50.700;5.440;2023-11-22T03:49:15;101145.92;;;21.10;36.53
72024;BME280;59889;50.700;5.440;2023-11-22T03:51:41;101149.00;;;21.27;36.63
72024;BME280;59889;50.700;5.440;2023-11-22T03:54:05;101149.41;;;20.89;36.83
72024;BME280;59889;50.700;5.440;2023-11-22T03:56:30;101147.15;;;21.08;36.62
72024;BME280;59889;50.700;5.440;2023-11-22T03:58:55;101145.93;;;20.95;36.74
72024;BME280;59889;50.700;5.440;2023-11-22T04:01:20;101152.38;;;21.22;36.72
72024;BME280;59889;50.700;5.440;2023-11-22T04:03:45;101158.65;;;21.17;36.77
72024;BME280;59889;50.700;5.440;2023-11-22T04:06:10;101163.27;;;20.93;36.76
72024;BME280;59889;50.700;5.440;2023-11-22T04:08:35;101170.59;;;21.29;36.62
72024;BME280;59889;50.700;5.440;2023-11-22T04:11:00;101180.87;;;21.25;36.69
72024;BME280;59889;50.700;5.440;2023-11-22T04:13:25;101188.55;;;20.93;36.78
72024;BME280;59889;50.700;5.440;2023-11-22T04:15:50;101199.99;;;20.97;36.72
72024;BME280;59889;50.700;5.440;2023-11-22T04:18:16;101209.97;;;21.15;36.82
72024;BME280;59889;50.700;5.440;2023-11-22T04:20:41;101219.26;;;20.92;36.82
72024;BME280;59889;50.700;5.440;2023-11-22T04:23:06;101219.27;;;21.31;36.61
72024;BME280;59889;50.700;5.440;2023-11-22T04:25:31;101220.85;;;21.29;36.61
72024;BME280;59889;50.700;5.440;2023-11-22T04:27:56;101217.47;;;21.38;36.53
72024;BME280;59889;50.700;5.440;2023-11-22T04:30:21;101218.84;;;21.14;36.82
72024;BME280;59889;50.700;5.440;2023-11-22T04:32:46;101223.03;;;21.16;36.80
72024;BME280;59889;50.700;5.440;2023-11-22T04:35:11;101232.32;;;21.16;36.81
72024;BME280;59889;50.700;5.440;2023-11-22T04:37:36;101234.14;;;20.80;36.97
72024;BME280;59889;50.700;5.440;2023-11-22T04:40:01;101235.04;;;21.16;36.79
72024;BME280;59889;50.700;5.440;2023-11-22T04:42:26;101238.52;;;21.19;36.76
72024;BME280;59889;50.700;5.440;2023-11-22T04:44:51;101243.05;;;21.25;36.69
72024;BME280;59889;50.700;5.440;2023-11-22T04:47:16;101246.30;;;20.72;36.75
72024;BME280;59889;50.700;5.440;2023-11-22T04:49:41;101245.60;;;21.12;36.84
72024;BME280;59889;50.700;5.440;2023-11-22T04:52:06;101249.32;;;21.01;36.66
72024;BME280;59889;50.700;5.440;2023-11-22T04:54:31;101252.38;;;21.30;36.61
72024;BME280;59889;50.700;5.440;2023-11-22T04:56:56;101253.43;;;21.14;36.48
72024;BME280;59889;50.700;5.440;2023-11-22T04:59:21;101257.46;;;21.20;36.73
72024;BME280;59889;50.700;5.440;2023-11-22T05:01:46;101258.65;;;21.18;36.77
72024;BME280;59889;50.700;5.440;2023-11-22T05:04:12;101263.12;;;21.30;36.61
72024;BME280;59889;50.700;5.440;2023-11-22T05:06:36;101263.19;;;21.22;36.69
72024;BME280;59889;50.700;5.440;2023-11-22T05:09:02;101261.93;;;21.21;36.69
72024;BME280;59889;50.700;5.440;2023-11-22T05:11:26;101257.53;;;21.12;36.80
72024;BME280;59889;50.700;5.440;2023-11-22T05:13:51;101256.98;;;20.95;36.72
72024;BME280;59889;50.700;5.440;2023-11-22T05:16:17;101258.71;;;20.97;36.68
72024;BME280;59889;50.700;5.440;2023-11-22T05:18:41;101258.53;;;21.18;36.70
72024;BME280;59889;50.700;5.440;2023-11-22T05:21:06;101256.09;;;20.97;36.65
72024;BME280;59889;50.700;5.440;2023-11-22T05:23:31;101262.22;;;21.34;36.49
72024;BME280;59889;50.700;5.440;2023-11-22T05:25:56;101262.22;;;21.09;37.09
72024;BME280;59889;50.700;5.440;2023-11-22T05:28:22;101264.69;;;21.32;36.56
72024;BME280;59889;50.700;5.440;2023-11-22T05:30:47;101267.75;;;20.98;36.54
72024;BME280;59889;50.700;5.440;2023-11-22T05:33:12;101275.69;;;21.19;36.05
72024;BME280;59889;50.700;5.440;2023-11-22T05:35:37;101277.73;;;21.00;36.09
72024;BME280;59889;50.700;5.440;2023-11-22T05:38:02;101286.33;;;20.92;35.79
72024;BME280;59889;50.700;5.440;2023-11-22T05:40:27;101286.76;;;20.79;35.84
72024;BME280;59889;50.700;5.440;2023-11-22T05:42:52;101281.94;;;20.88;35.61
72024;BME280;59889;50.700;5.440;2023-11-22T05:45:18;101285.98;;;21.01;35.29
72024;BME280;59889;50.700;5.440;2023-11-22T05:47:43;101287.78;;;20.85;35.28
72024;BME280;59889;50.700;5.440;2023-11-22T05:50:08;101288.43;;;20.82;35.09
72024;BME280;59889;50.700;5.440;2023-11-22T05:52:33;101294.51;;;20.72;35.16
72024;BME280;59889;50.700;5.440;2023-11-22T05:54:58;101294.38;;;20.77;35.10
72024;BME280;59889;50.700;5.440;2023-11-22T05:57:24;101290.57;;;20.75;34.90
72024;BME280;59889;50.700;5.440;2023-11-22T05:59:49;101289.11;;;20.51;35.18
72024;BME280;59889;50.700;5.440;2023-11-22T06:02:14;101289.14;;;20.63;35.07
72024;BME280;59889;50.700;5.440;2023-11-22T06:04:40;101281.58;;;20.76;34.77
72024;BME280;59889;50.700;5.440;2023-11-22T06:07:05;101278.50;;;20.86;34.70
72024;BME280;59889;50.700;5.440;2023-11-22T06:09:30;101274.45;;;20.59;34.77
72024;BME280;59889;50.700;5.440;2023-11-22T06:11:56;101276.13;;;20.62;35.04
72024;BME280;59889;50.700;5.440;2023-11-22T06:14:22;101286.60;;;20.69;35.42
72024;BME280;59889;50.700;5.440;2023-11-22T06:16:46;101289.05;;;21.03;35.66
72024;BME280;59889;50.700;5.440;2023-11-22T06:19:12;101292.93;;;20.61;36.25
72024;BME280;59889;50.700;5.440;2023-11-22T06:21:38;101305.69;;;20.95;36.27
72024;BME280;59889;50.700;5.440;2023-11-22T06:24:03;101307.93;;;20.96;36.27
72024;BME280;59889;50.700;5.440;2023-11-22T06:26:28;101307.93;;;21.06;36.74
72024;BME280;59889;50.700;5.440;2023-11-22T06:28:53;101312.21;;;20.68;36.77
72024;BME280;59889;50.700;5.440;2023-11-22T06:31:19;101308.33;;;20.75;36.84
72024;BME280;59889;50.700;5.440;2023-11-22T06:33:45;101303.43;;;20.85;36.82
72024;BME280;59889;50.700;5.440;2023-11-22T06:36:10;101308.73;;;20.93;36.97
72024;BME280;59889;50.700;5.440;2023-11-22T06:38:35;101310.72;;;20.60;37.30
72024;BME280;59889;50.700;5.440;2023-11-22T06:41:00;101315.95;;;20.73;37.10
72024;BME280;59889;50.700;5.440;2023-11-22T06:43:25;101322.40;;;20.56;37.39
72024;BME280;59889;50.700;5.440;2023-11-22T06:45:50;101325.98;;;20.72;37.27
72024;BME280;59889;50.700;5.440;2023-11-22T06:48:15;101326.95;;;20.45;37.65
72024;BME280;59889;50.700;5.440;2023-11-22T06:50:40;101325.11;;;20.59;37.47
72024;BME280;59889;50.700;5.440;2023-11-22T06:53:05;101313.68;;;20.72;37.35
72024;BME280;59889;50.700;5.440;2023-11-22T06:55:31;101313.10;;;20.73;37.33
72024;BME280;59889;50.700;5.440;2023-11-22T06:57:56;101315.92;;;20.94;37.39
72024;BME280;59889;50.700;5.440;2023-11-22T07:00:22;101313.32;;;20.59;37.55
72024;BME280;59889;50.700;5.440;2023-11-22T07:02:47;101318.27;;;20.58;37.59
72024;BME280;59889;50.700;5.440;2023-11-22T07:05:12;101321.05;;;20.69;37.44
72024;BME280;59889;50.700;5.440;2023-11-22T07:07:38;101329.41;;;20.74;37.39
72024;BME280;59889;50.700;5.440;2023-11-22T07:10:04;101331.38;;;20.65;37.50
72024;BME280;59889;50.700;5.440;2023-11-22T07:12:28;101331.82;;;20.68;37.81
72024;BME280;59889;50.700;5.440;2023-11-22T07:14:53;101343.06;;;20.65;37.57
72024;BME280;59889;50.700;5.440;2023-11-22T07:17:18;101355.40;;;20.82;37.28
72024;BME280;59889;50.700;5.440;2023-11-22T07:19:43;101355.04;;;20.67;37.37
72024;BME280;59889;50.700;5.440;2023-11-22T07:22:08;101345.57;;;20.86;37.34
72024;BME280;59889;50.700;5.440;2023-11-22T07:24:34;101340.06;;;20.70;37.14
72024;BME280;59889;50.700;5.440;2023-11-22T07:26:59;101338.14;;;20.47;37.32
72024;BME280;59889;50.700;5.440;2023-11-22T07:29:24;101343.05;;;20.64;36.96
72024;BME280;59889;50.700;5.440;2023-11-22T07:31:50;101345.22;;;21.19;36.75
72024;BME280;59889;50.700;5.440;2023-11-22T07:34:15;101349.44;;;20.69;36.66
72024;BME280;59889;50.700;5.440;2023-11-22T07:36:41;101349.94;;;20.63;36.73
72024;BME280;59889;50.700;5.440;2023-11-22T07:39:06;101354.64;;;20.47;36.94
72024;BME280;59889;50.700;5.440;2023-11-22T07:41:31;101352.96;;;20.55;36.73
72024;BME280;59889;50.700;5.440;2023-11-22T07:43:56;101352.04;;;20.62;36.64
72024;BME280;59889;50.700;5.440;2023-11-22T07:46:21;101347.26;;;20.83;36.27
72024;BME280;59889;50.700;5.440;2023-11-22T07:48:46;101344.47;;;20.55;36.30
72024;BME280;59889;50.700;5.440;2023-11-22T07:51:13;101345.32;;;20.52;36.24
72024;BME280;59889;50.700;5.440;2023-11-22T07:53:37;101344.00;;;20.56;35.92
72024;BME280;59889;50.700;5.440;2023-11-22T07:56:04;101344.12;;;20.61;35.55
72024;BME280;59889;50.700;5.440;2023-11-22T07:58:28;101344.15;;;20.49;35.74
72024;BME280;59889;50.700;5.440;2023-11-22T08:00:54;101338.18;;;20.33;35.67
72024;BME280;59889;50.700;5.440;2023-11-22T08:03:20;101336.60;;;20.53;35.11
72024;BME280;59889;50.700;5.440;2023-11-22T08:05:44;101337.50;;;20.86;35.02
72024;BME280;59889;50.700;5.440;2023-11-22T08:08:10;101336.35;;;20.50;34.95
72024;BME280;59889;50.700;5.440;2023-11-22T08:10:35;101327.68;;;20.84;34.61
72024;BME280;59889;50.700;5.440;2023-11-22T08:13:01;101335.01;;;20.69;34.56
72024;BME280;59889;50.700;5.440;2023-11-22T08:15:26;101335.97;;;20.45;34.75
72024;BME280;59889;50.700;5.440;2023-11-22T08:17:52;101335.45;;;20.32;34.75
72024;BME280;59889;50.700;5.440;2023-11-22T08:20:16;101335.89;;;20.20;34.55
72024;BME280;59889;50.700;5.440;2023-11-22T08:22:43;101345.02;;;20.31;34.60
72024;BME280;59889;50.700;5.440;2023-11-22T08:25:09;101350.79;;;20.67;34.17
72024;BME280;59889;50.700;5.440;2023-11-22T08:27:33;101357.76;;;20.34;34.23
72024;BME280;59889;50.700;5.440;2023-11-22T08:29:58;101368.13;;;20.53;34.20
72024;BME280;59889;50.700;5.440;2023-11-22T08:32:23;101379.37;;;20.28;34.22
72024;BME280;59889;50.700;5.440;2023-11-22T08:34:49;101386.71;;;20.76;34.15
72024;BME280;59889;50.700;5.440;2023-11-22T08:37:14;101391.16;;;20.41;33.81
72024;BME280;59889;50.700;5.440;2023-11-22T08:39:39;101398.47;;;20.29;33.96
72024;BME280;59889;50.700;5.440;2023-11-22T08:42:05;101403.85;;;20.22;34.06
72024;BME280;59889;50.700;5.440;2023-11-22T08:44:30;101409.53;;;20.15;34.02
72024;BME280;59889;50.700;5.440;2023-11-22T08:46:56;101423.28;;;20.59;33.85
72024;BME280;59889;50.700;5.440;2023-11-22T08:49:21;101435.99;;;20.49;33.91
72024;BME280;59889;50.700;5.440;2023-11-22T08:51:47;101438.32;;;20.50;33.96
72024;BME280;59889;50.700;5.440;2023-11-22T08:54:12;101444.21;;;20.52;33.31
72024;BME280;59889;50.700;5.440;2023-11-22T08:56:37;101449.32;;;20.66;32.71
72024;BME280;59889;50.700;5.440;2023-11-22T08:59:03;101450.58;;;20.40;33.25
72024;BME280;59889;50.700;5.440;2023-11-22T09:01:28;101443.78;;;20.19;33.34
72024;BME280;59889;50.700;5.440;2023-11-22T09:03:53;101434.11;;;20.10;33.44
72024;BME280;59889;50.700;5.440;2023-11-22T09:06:18;101425.33;;;20.17;33.40
72024;BME280;59889;50.700;5.440;2023-11-22T09:08:43;101423.97;;;20.24;33.47
72024;BME280;59889;50.700;5.440;2023-11-22T09:11:09;101423.17;;;20.79;33.42
72024;BME280;59889;50.700;5.440;2023-11-22T09:13:34;101417.88;;;20.31;33.38
72024;BME280;59889;50.700;5.440;2023-11-22T09:16:00;101420.48;;;20.40;33.37
72024;BME280;59889;50.700;5.440;2023-11-22T09:18:25;101432.47;;;20.69;33.40
72024;BME280;59889;50.700;5.440;2023-11-22T09:20:51;101434.38;;;20.48;33.34
72024;BME280;59889;50.700;5.440;2023-11-22T09:23:16;101434.35;;;20.29;33.17
72024;BME280;59889;50.700;5.440;2023-11-22T09:25:41;101435.68;;;20.35;33.24
72024;BME280;59889;50.700;5.440;2023-11-22T09:28:07;101434.73;;;20.17;33.30
72024;BME280;59889;50.700;5.440;2023-11-22T09:30:32;101440.23;;;20.67;33.19
72024;BME280;59889;50.700;5.440;2023-11-22T09:32:57;101441.51;;;20.45;32.90
72024;BME280;59889;50.700;5.440;2023-11-22T09:35:22;101446.57;;;20.43;33.14
72024;BME280;59889;50.700;5.440;2023-11-22T09:37:47;101451.59;;;20.40;33.03
72024;BME280;59889;50.700;5.440;2023-11-22T09:40:12;101447.09;;;20.35;33.09
72024;BME280;59889;50.700;5.440;2023-11-22T09:42:37;101447.62;;;20.25;33.16
72024;BME280;59889;50.700;5.440;2023-11-22T09:45:03;101447.07;;;20.56;32.98
72024;BME280;59889;50.700;5.440;2023-11-22T09:47:32;101451.17;;;20.07;33.04
72024;BME280;59889;50.700;5.440;2023-11-22T09:49:56;101457.98;;;20.53;32.78
72024;BME280;59889;50.700;5.440;2023-11-22T09:52:21;101459.72;;;20.56;32.68
72024;BME280;59889;50.700;5.440;2023-11-22T09:54:45;101462.69;;;20.29;32.65
72024;BME280;59889;50.700;5.440;2023-11-22T09:57:11;101465.50;;;20.25;32.59
72024;BME280;59889;50.700;5.440;2023-11-22T09:59:36;101465.65;;;20.30;32.43
72024;BME280;59889;50.700;5.440;2023-11-22T10:02:02;101464.84;;;20.38;32.23
72024;BME280;59889;50.700;5.440;2023-11-22T10:04:26;101466.36;;;20.83;32.21
72024;BME280;59889;50.700;5.440;2023-11-22T10:06:52;101460.52;;;20.53;32.11
72024;BME280;59889;50.700;5.440;2023-11-22T10:09:17;101454.72;;;20.54;32.21
72024;BME280;59889;50.700;5.440;2023-11-22T10:11:42;101458.91;;;20.82;32.24
72024;BME280;59889;50.700;5.440;2023-11-22T10:14:08;101466.53;;;20.21;32.51
72024;BME280;59889;50.700;5.440;2023-11-22T10:16:33;101466.05;;;20.12;32.79
72024;BME280;59889;50.700;5.440;2023-11-22T10:18:58;101464.68;;;20.28;32.69
72024;BME280;59889;50.700;5.440;2023-11-22T10:21:25;101461.67;;;20.30;32.78
72024;BME280;59889;50.700;5.440;2023-11-22T10:23:49;101459.33;;;20.35;33.06
72024;BME280;59889;50.700;5.440;2023-11-22T10:26:14;101457.01;;;20.15;33.12
72024;BME280;59889;50.700;5.440;2023-11-22T10:28:40;101450.78;;;20.40;33.19
72024;BME280;59889;50.700;5.440;2023-11-22T10:31:07;101444.03;;;20.10;33.36
72024;BME280;59889;50.700;5.440;2023-11-22T10:33:30;101438.05;;;20.52;33.21
72024;BME280;59889;50.700;5.440;2023-11-22T10:35:56;101437.27;;;20.53;33.28
72024;BME280;59889;50.700;5.440;2023-11-22T10:38:22;101441.18;;;20.41;33.45
72024;BME280;59889;50.700;5.440;2023-11-22T10:40:47;101445.23;;;20.40;33.53
72024;BME280;59889;50.700;5.440;2023-11-22T10:43:13;101449.99;;;20.25;33.52
72024;BME280;59889;50.700;5.440;2023-11-22T10:45:38;101453.68;;;20.24;33.61
72024;BME280;59889;50.700;5.440;2023-11-22T10:48:05;101451.85;;;20.17;33.67
72024;BME280;59889;50.700;5.440;2023-11-22T10:50:30;101450.48;;;20.47;33.69
72024;BME280;59889;50.700;5.440;2023-11-22T10:52:57;101452.06;;;20.48;33.71
72024;BME280;59889;50.700;5.440;2023-11-22T10:55:21;101455.07;;;20.50;33.78
72024;BME280;59889;50.700;5.440;2023-11-22T10:57:46;101458.40;;;20.48;33.85
72024;BME280;59889;50.700;5.440;2023-11-22T11:00:13;101458.83;;;20.63;33.72
72024;BME280;59889;50.700;5.440;2023-11-22T11:02:41;101449.47;;;20.18;34.02
72024;BME280;59889;50.700;5.440;2023-11-22T11:05:05;101449.36;;;20.57;33.89
72024;BME280;59889;50.700;5.440;2023-11-22T11:07:30;101450.85;;;20.27;34.01
72024;BME280;59889;50.700;5.440;2023-11-22T11:09:54;101451.03;;;20.44;33.85
72024;BME280;59889;50.700;5.440;2023-11-22T11:12:18;101449.69;;;20.34;34.01
72024;BME280;59889;50.700;5.440;2023-11-22T11:14:44;101445.85;;;20.46;34.17
72024;BME280;59889;50.700;5.440;2023-11-22T11:17:09;101441.96;;;20.79;34.13
72024;BME280;59889;50.700;5.440;2023-11-22T11:19:34;101437.11;;;20.18;34.32
72024;BME280;59889;50.700;5.440;2023-11-22T11:22:00;101426.38;;;20.26;34.25
72024;BME280;59889;50.700;5.440;2023-11-22T11:24:25;101418.25;;;20.25;34.32
72024;BME280;59889;50.700;5.440;2023-11-22T11:26:50;101427.70;;;20.29;34.36
72024;BME280;59889;50.700;5.440;2023-11-22T11:29:29;101428.68;;;20.25;34.43
72024;BME280;59889;50.700;5.440;2023-11-22T11:31:42;101424.30;;;20.33;34.37
72024;BME280;59889;50.700;5.440;2023-11-22T11:34:07;101418.58;;;20.61;34.65
72024;BME280;59889;50.700;5.440;2023-11-22T11:36:33;101414.99;;;20.16;34.65
72024;BME280;59889;50.700;5.440;2023-11-22T11:38:59;101414.14;;;20.13;34.71
72024;BME280;59889;50.700;5.440;2023-11-22T11:41:25;101413.98;;;20.34;34.70
72024;BME280;59889;50.700;5.440;2023-11-22T11:43:48;101410.97;;;20.53;34.44
72024;BME280;59889;50.700;5.440;2023-11-22T11:46:14;101399.77;;;20.41;34.54
72024;BME280;59889;50.700;5.440;2023-11-22T11:48:42;101395.66;;;20.03;34.70
72024;BME280;59889;50.700;5.440;2023-11-22T11:51:04;101383.77;;;20.38;34.56
72024;BME280;59889;50.700;5.440;2023-11-22T11:53:29;101384.37;;;20.11;34.63
72024;BME280;59889;50.700;5.440;2023-11-22T11:55:55;101390.77;;;20.35;34.61
72024;BME280;59889;50.700;5.440;2023-11-22T11:58:20;101390.34;;;20.27;34.38
72024;BME280;59889;50.700;5.440;2023-11-22T12:00:45;101385.55;;;20.44;34.41
72024;BME280;59889;50.700;5.440;2023-11-22T12:03:10;101380.38;;;20.76;34.30
72024;BME280;59889;50.700;5.440;2023-11-22T12:05:36;101375.82;;;20.39;34.43
72024;BME280;59889;50.700;5.440;2023-11-22T12:08:01;101373.80;;;20.43;34.39
72024;BME280;59889;50.700;5.440;2023-11-22T12:10:26;101367.76;;;20.57;34.52
72024;BME280;59889;50.700;5.440;2023-11-22T12:12:52;101365.41;;;20.18;34.47
72024;BME280;59889;50.700;5.440;2023-11-22T12:15:18;101371.33;;;20.38;34.53
72024;BME280;59889;50.700;5.440;2023-11-22T12:17:43;101376.86;;;20.44;34.48
72024;BME280;59889;50.700;5.440;2023-11-22T12:20:11;101374.64;;;20.34;34.63
72024;BME280;59889;50.700;5.440;2023-11-22T12:22:33;101368.79;;;20.43;34.55
72024;BME280;59889;50.700;5.440;2023-11-22T12:24:59;101354.10;;;20.57;34.71
72024;BME280;59889;50.700;5.440;2023-11-22T12:27:25;101336.04;;;20.35;34.73
72024;BME280;59889;50.700;5.440;2023-11-22T12:29:51;101327.39;;;20.52;34.52
72024;BME280;59889;50.700;5.440;2023-11-22T12:32:15;101318.29;;;20.53;34.87
72024;BME280;59889;50.700;5.440;2023-11-22T12:34:40;101313.62;;;20.06;34.88
72024;BME280;59889;50.700;5.440;2023-11-22T12:37:06;101307.48;;;20.20;34.73
72024;BME280;59889;50.700;5.440;2023-11-22T12:39:31;101305.74;;;20.49;35.00